Current Weather

Wajir

Wajir, Kenya (HKWJ)

Report from: Sunday, December 4, 2022 2:00 PM EAT
Current time: Sunday, December 4, 2022 2:50 PM EAT

Nearby weather
Weather history
Weather forecast

Temperature34.0°C (93.2°F)
Heat index34.6°C (94.2°F)
Dew point17.0°C (62.6°F)
Winds 10 kts (5.1 m/s, 11.5 mph) East-Southeast (110°)
Visibility6.2 mi. (10 km)
Clouds Ceiling: Broken clouds 3,300 ft. (1,006 m)
Altimeter29.77 in.Hg (1008 mB)
Relative humidity36 %
Density altitude2,602 ft. (793 m)
Flight conditions Visual Meteorological Conditions
Raw dataHKWJ 041100Z 11010KT 9999 BKN033 34/17 Q1008
An error has occurred. This application may no longer respond until reloaded. Reload 🗙